Time;durP1;ratioP1;P1;durP2;ratioP2;P2;SDS_P1;SDS_P2;PMS_P1;PMS_P2;Temp;Humidity;BMP_temperature;BMP_pressure;BME280_temperature;BME280_humidity;BME280_pressure;Samples;Min_cycle;Max_cycle;Signal;HPM_P1;HPM_P2
2024/03/26 00:00:38;;;;;;;7.78;3.10;;;7.50;78.20;;;;;;2086940;28;20029;-70
2024/03/26 00:01:39;;;;;;;9.77;3.42;;;7.50;77.60;;;;;;2094790;28;20103;-69
2024/03/26 00:02:39;;;;;;;7.97;2.90;;;7.50;78.30;;;;;;2093044;28;20025;-69
2024/03/26 00:03:40;;;;;;;8.02;3.83;;;7.50;77.50;;;;;;2093045;28;20397;-70
2024/03/26 00:04:42;;;;;;;7.25;3.05;;;7.50;77.60;;;;;;2094266;28;21603;-70
2024/03/26 00:05:42;;;;;;;9.60;3.70;;;7.50;77.60;;;;;;2094781;28;20025;-70
2024/03/26 00:06:43;;;;;;;11.90;3.03;;;7.50;77.70;;;;;;2094493;28;20097;-70
2024/03/26 00:07:43;;;;;;;10.45;3.72;;;7.50;77.70;;;;;;2094728;28;20507;-70
2024/03/26 00:08:44;;;;;;;8.95;3.45;;;7.50;77.80;;;;;;2094241;28;20036;-69
2024/03/26 00:09:44;;;;;;;6.22;2.75;;;7.50;77.70;;;;;;2093044;28;20063;-70
2024/03/26 00:10:45;;;;;;;8.35;3.33;;;7.50;77.70;;;;;;2094608;28;20040;-69
2024/03/26 00:11:46;;;;;;;9.95;3.78;;;7.50;77.70;;;;;;2093085;28;20031;-69
2024/03/26 00:12:46;;;;;;;9.05;4.30;;;7.50;77.70;;;;;;2093548;28;20075;-69
2024/03/26 00:13:47;;;;;;;7.80;3.40;;;7.50;77.70;;;;;;2095502;28;20028;-70
2024/03/26 00:14:47;;;;;;;9.40;4.20;;;7.50;77.80;;;;;;2093431;28;20116;-69
2024/03/26 00:15:48;;;;;;;4.93;3.22;;;7.40;77.70;;;;;;2095274;28;20502;-70
2024/03/26 00:16:48;;;;;;;9.85;3.30;;;7.50;77.80;;;;;;2093283;28;20031;-70
2024/03/26 00:17:49;;;;;;;5.97;3.20;;;7.40;77.80;;;;;;2094251;28;20017;-70
2024/03/26 00:18:49;;;;;;;8.63;3.08;;;7.40;77.90;;;;;;2095908;28;20024;-68
2024/03/26 00:19:50;;;;;;;7.15;3.67;;;7.40;77.90;;;;;;2094092;28;20450;-70
2024/03/26 00:20:50;;;;;;;7.55;3.40;;;7.40;77.80;;;;;;2095415;28;20044;-69
2024/03/26 00:21:51;;;;;;;11.68;3.30;;;7.40;77.80;;;;;;2093082;28;20070;-70
2024/03/26 00:22:51;;;;;;;9.48;3.42;;;7.50;77.80;;;;;;2093079;28;20025;-69
2024/03/26 00:23:52;;;;;;;8.98;3.10;;;7.50;77.80;;;;;;2093561;28;20057;-70
2024/03/26 00:24:52;;;;;;;11.70;3.58;;;7.50;77.90;;;;;;2092873;28;20021;-70
2024/03/26 00:25:53;;;;;;;8.52;3.45;;;7.50;77.90;;;;;;2093911;28;20024;-70
2024/03/26 00:26:54;;;;;;;7.53;3.33;;;7.50;77.90;;;;;;2090648;28;20574;-70
2024/03/26 00:27:55;;;;;;;8.80;3.72;;;7.50;78.10;;;;;;2092756;28;21572;-70
2024/03/26 00:28:58;;;;;;;7.82;3.13;;;7.40;78.00;;;;;;2093938;28;20103;-70
2024/03/26 00:29:59;;;;;;;8.23;3.38;;;7.50;78.20;;;;;;2095464;28;20028;-70
2024/03/26 00:30:59;;;;;;;8.05;3.45;;;7.50;78.20;;;;;;2094994;28;20039;-69
2024/03/26 00:32:00;;;;;;;7.53;3.03;;;7.40;78.20;;;;;;2095462;28;20047;-70
2024/03/26 00:33:00;;;;;;;9.10;3.28;;;7.40;78.30;;;;;;2092887;28;20477;-69
2024/03/26 00:34:01;;;;;;;6.38;3.30;;;7.40;78.30;;;;;;2093139;28;20062;-70
2024/03/26 00:35:02;;;;;;;7.95;3.78;;;7.40;78.40;;;;;;2093280;28;20021;-70
2024/03/26 00:36:03;;;;;;;8.68;3.53;;;7.40;78.40;;;;;;2095000;28;20038;-70
2024/03/26 00:37:03;;;;;;;7.50;3.30;;;7.40;78.40;;;;;;2093241;28;20025;-70
2024/03/26 00:38:04;;;;;;;6.10;3.00;;;7.40;78.40;;;;;;2095154;28;20028;-69
2024/03/26 00:39:06;;;;;;;6.82;3.00;;;7.40;78.40;;;;;;2093921;28;20424;-70
2024/03/26 00:40:07;;;;;;;7.50;3.08;;;7.40;78.60;;;;;;2093939;28;20145;-70
2024/03/26 00:41:08;;;;;;;8.20;3.55;;;7.40;78.60;;;;;;2093321;28;20373;-70
2024/03/26 00:42:08;;;;;;;6.80;3.88;;;7.40;78.70;;;;;;2091745;28;20104;-69
2024/03/26 00:43:09;;;;;;;8.40;3.30;;;7.40;78.70;;;;;;2092273;28;20428;-69
2024/03/26 00:44:09;;;;;;;7.43;3.35;;;7.40;78.80;;;;;;2092122;28;20031;-69
2024/03/26 00:45:10;;;;;;;7.32;3.85;;;7.40;78.80;;;;;;2093143;28;20029;-70
2024/03/26 00:46:10;;;;;;;11.02;3.63;;;7.40;78.90;;;;;;2091812;28;20401;-70
2024/03/26 00:47:11;;;;;;;8.73;3.50;;;7.40;79.00;;;;;;2092643;28;20064;-70
2024/03/26 00:48:11;;;;;;;6.63;3.47;;;7.40;78.90;;;;;;2091881;28;20033;-70
2024/03/26 00:49:12;;;;;;;7.07;3.55;;;7.40;78.90;;;;;;2093741;28;20150;-69
2024/03/26 00:50:13;;;;;;;8.95;3.35;;;7.40;78.90;;;;;;2093551;28;20473;-69
2024/03/26 00:51:13;;;;;;;10.60;3.58;;;7.40;79.00;;;;;;2090599;28;20441;-70
2024/03/26 00:52:14;;;;;;;8.48;3.40;;;7.40;78.90;;;;;;2090083;28;20047;-68
2024/03/26 00:53:14;;;;;;;6.22;3.53;;;7.40;79.00;;;;;;2091812;28;20492;-69
2024/03/26 00:54:15;;;;;;;9.95;3.53;;;7.40;79.10;;;;;;2091374;28;20036;-70
2024/03/26 00:55:15;;;;;;;7.05;3.17;;;7.40;79.20;;;;;;2093507;28;20037;-70
2024/03/26 00:56:16;;;;;;;10.60;3.50;;;7.40;79.10;;;;;;2094845;28;20060;-70
2024/03/26 00:57:16;;;;;;;9.15;3.40;;;7.40;79.10;;;;;;2091374;28;20024;-70
2024/03/26 00:58:17;;;;;;;9.15;3.50;;;7.40;79.10;;;;;;2093679;28;20020;-70
2024/03/26 00:59:18;;;;;;;7.80;3.33;;;7.40;79.10;;;;;;2093636;28;20512;-70
2024/03/26 01:00:18;;;;;;;6.72;3.20;;;7.40;79.30;;;;;;2092328;28;20062;-68
2024/03/26 01:01:19;;;;;;;7.88;3.25;;;7.40;79.30;;;;;;2092146;28;20502;-70
2024/03/26 01:02:19;;;;;;;9.10;3.97;;;7.40;79.30;;;;;;2092218;28;20033;-69
2024/03/26 01:03:20;;;;;;;8.30;3.30;;;7.40;79.80;;;;;;2094780;28;20052;-68
2024/03/26 01:04:20;;;;;;;8.88;3.35;;;7.40;79.20;;;;;;2094835;28;20074;-70
2024/03/26 01:05:21;;;;;;;8.13;3.47;;;7.40;79.30;;;;;;2093802;28;20397;-70
2024/03/26 01:06:22;;;;;;;8.75;3.78;;;7.40;79.30;;;;;;2093781;28;20028;-69
2024/03/26 01:07:22;;;;;;;12.15;3.75;;;7.40;79.30;;;;;;2094535;28;20086;-69
2024/03/26 01:08:23;;;;;;;6.60;3.05;;;7.40;79.40;;;;;;2091077;28;20612;-70
2024/03/26 01:09:23;;;;;;;6.57;3.17;;;7.40;79.30;;;;;;2092938;28;20040;-70
2024/03/26 01:10:24;;;;;;;8.07;3.17;;;7.40;79.30;;;;;;2093636;28;20335;-70
2024/03/26 01:11:24;;;;;;;9.98;4.07;;;7.40;79.40;;;;;;2092257;28;20059;-69
2024/03/26 01:12:25;;;;;;;8.02;3.17;;;7.40;79.40;;;;;;2093798;28;20032;-70
2024/03/26 01:13:25;;;;;;;9.43;3.28;;;7.40;79.40;;;;;;2094550;28;20347;-70
2024/03/26 01:14:26;;;;;;;7.43;3.53;;;7.40;79.30;;;;;;2093435;28;20021;-69
2024/03/26 01:15:26;;;;;;;7.30;3.30;;;7.40;79.40;;;;;;2092130;28;20070;-70
2024/03/26 01:16:27;;;;;;;7.25;3.30;;;7.40;79.40;;;;;;2095012;28;20063;-70
2024/03/26 01:17:28;;;;;;;13.63;3.40;;;7.40;79.30;;;;;;2094809;28;20035;-70
2024/03/26 01:18:28;;;;;;;8.55;3.40;;;7.40;79.40;;;;;;2092816;28;20025;-70
2024/03/26 01:19:29;;;;;;;11.30;3.65;;;7.40;79.40;;;;;;2084070;28;20063;-70
2024/03/26 01:20:29;;;;;;;8.45;3.50;;;7.40;79.50;;;;;;2082248;28;20037;-69
2024/03/26 01:21:30;;;;;;;9.93;3.33;;;7.40;79.50;;;;;;2095563;28;20024;-70
2024/03/26 01:22:30;;;;;;;9.73;3.85;;;7.40;79.40;;;;;;2093878;28;20032;-69
2024/03/26 01:23:31;;;;;;;9.82;3.92;;;7.40;79.30;;;;;;2094457;28;20457;-70
2024/03/26 01:24:31;;;;;;;5.63;2.70;;;7.40;79.40;;;;;;2093762;28;20025;-70
2024/03/26 01:25:32;;;;;;;6.35;2.78;;;7.30;79.40;;;;;;2094799;28;20082;-70
2024/03/26 01:26:32;;;;;;;6.82;3.40;;;7.40;79.40;;;;;;2093256;28;20039;-70
2024/03/26 01:27:36;;;;;;;10.05;3.55;;;7.30;79.30;;;;;;2096630;28;20040;-70
2024/03/26 01:28:36;;;;;;;14.43;3.67;;;7.30;79.40;;;;;;2094251;28;20036;-70
2024/03/26 01:29:37;;;;;;;6.35;3.67;;;7.30;79.40;;;;;;2093940;28;20035;-70
2024/03/26 01:30:37;;;;;;;6.50;3.13;;;7.40;79.40;;;;;;2093682;28;20571;-70
2024/03/26 01:31:38;;;;;;;7.72;3.08;;;7.30;79.40;;;;;;2093292;28;20054;-68
2024/03/26 01:32:38;;;;;;;9.40;3.25;;;7.30;79.40;;;;;;2094571;28;20047;-68
2024/03/26 01:33:40;;;;;;;8.20;3.55;;;7.30;79.50;;;;;;2095255;28;20063;-70
2024/03/26 01:34:41;;;;;;;8.05;3.20;;;7.30;79.50;;;;;;2093499;28;20104;-70
2024/03/26 01:35:53;;;;;;;8.75;3.40;;;7.30;79.60;;;;;;2095109;28;20032;-70
2024/03/26 01:36:54;;;;;;;7.20;3.17;;;7.40;79.60;;;;;;2096428;28;20028;-70
2024/03/26 01:37:54;;;;;;;7.28;3.13;;;7.30;79.50;;;;;;2094812;28;20134;-70
2024/03/26 01:38:55;;;;;;;8.80;3.38;;;7.30;79.60;;;;;;2094748;28;20032;-70
2024/03/26 01:39:55;;;;;;;10.65;4.28;;;7.30;79.70;;;;;;2091948;28;20732;-70
2024/03/26 01:40:56;;;;;;;6.35;2.97;;;7.30;79.60;;;;;;2092863;28;20060;-69
2024/03/26 01:41:56;;;;;;;7.43;3.45;;;7.30;79.70;;;;;;2093935;28;20043;-70
2024/03/26 01:42:58;;;;;;;7.10;3.05;;;7.30;79.70;;;;;;2092874;28;20482;-70
2024/03/26 01:43:58;;;;;;;6.38;2.97;;;7.30;79.80;;;;;;2092549;28;20773;-69
2024/03/26 01:44:59;;;;;;;8.23;3.50;;;7.30;80.00;;;;;;2092823;28;20051;-71
2024/03/26 01:45:59;;;;;;;8.52;3.40;;;7.30;80.30;;;;;;2091541;28;20059;-71
2024/03/26 01:47:00;;;;;;;6.07;2.70;;;7.30;80.20;;;;;;2092717;28;20024;-70
2024/03/26 01:48:01;;;;;;;7.03;3.10;;;7.30;80.20;;;;;;2092084;28;20098;-71
2024/03/26 01:49:04;;;;;;;6.15;2.88;;;7.30;80.10;;;;;;2091161;28;20863;-71
2024/03/26 01:50:12;;;;;;;7.93;3.28;;;7.30;79.90;;;;;;2093653;28;20061;-69
2024/03/26 01:51:12;;;;;;;6.88;3.03;;;7.30;79.80;;;;;;2093963;28;20461;-70
2024/03/26 01:52:13;;;;;;;6.25;3.47;;;7.20;79.70;;;;;;2093186;28;20378;-69
2024/03/26 01:53:14;;;;;;;6.82;3.55;;;7.20;79.80;;;;;;2094628;28;20086;-71
2024/03/26 01:54:15;;;;;;;6.97;2.97;;;7.20;79.80;;;;;;2092922;28;20035;-71
2024/03/26 01:55:17;;;;;;;8.90;3.38;;;7.20;79.90;;;;;;2093985;28;20089;-70
2024/03/26 01:56:18;;;;;;;6.95;3.20;;;7.20;79.90;;;;;;2090795;28;20043;-70
2024/03/26 01:57:19;;;;;;;5.60;2.83;;;7.20;79.90;;;;;;2093114;28;20024;-70
2024/03/26 01:58:20;;;;;;;7.00;3.08;;;7.20;80.00;;;;;;2093752;28;20115;-70
2024/03/26 01:59:22;;;;;;;7.18;3.10;;;7.10;79.80;;;;;;2092660;28;20110;-71
2024/03/26 02:00:26;;;;;;;6.75;3.10;;;7.20;79.90;;;;;;2093644;28;20032;-71
2024/03/26 02:01:27;;;;;;;8.73;3.10;;;7.10;80.00;;;;;;2093943;28;20020;-71
2024/03/26 02:02:27;;;;;;;8.20;3.03;;;7.10;80.00;;;;;;2091585;28;20069;-71
2024/03/26 02:03:28;;;;;;;8.77;3.33;;;7.20;80.00;;;;;;2093484;28;20924;-71
2024/03/26 02:04:28;;;;;;;5.82;2.63;;;7.10;80.00;;;;;;2092831;28;20028;-70
2024/03/26 02:05:29;;;;;;;7.43;2.97;;;7.10;80.00;;;;;;2094384;28;20032;-70
2024/03/26 02:06:30;;;;;;;8.18;3.08;;;7.10;80.10;;;;;;2093306;28;20044;-71
2024/03/26 02:07:30;;;;;;;4.53;2.67;;;7.10;80.10;;;;;;2094996;28;20032;-70
2024/03/26 02:08:31;;;;;;;4.43;2.80;;;7.10;80.00;;;;;;2083713;28;20103;-71
2024/03/26 02:09:32;;;;;;;7.65;2.80;;;7.10;80.20;;;;;;2084603;28;20036;-69
2024/03/26 02:10:33;;;;;;;3.67;2.38;;;7.10;80.20;;;;;;2093692;28;20061;-71
2024/03/26 02:11:33;;;;;;;8.95;3.22;;;7.10;80.40;;;;;;2092847;28;20031;-70
2024/03/26 02:12:34;;;;;;;5.65;3.03;;;7.10;80.40;;;;;;2093076;28;20104;-70
2024/03/26 02:13:34;;;;;;;6.38;2.92;;;7.10;80.40;;;;;;2094129;28;20122;-71
2024/03/26 02:14:35;;;;;;;6.85;3.30;;;7.10;80.30;;;;;;2092022;28;20135;-71
2024/03/26 02:15:35;;;;;;;6.95;3.38;;;7.10;80.50;;;;;;2093036;28;20020;-71
2024/03/26 02:16:36;;;;;;;8.70;3.28;;;7.10;80.50;;;;;;2094273;28;20332;-71
2024/03/26 02:17:36;;;;;;;6.30;2.90;;;7.10;80.40;;;;;;2094927;28;20032;-71
2024/03/26 02:18:37;;;;;;;7.85;3.10;;;7.10;80.40;;;;;;2092209;28;20016;-71
2024/03/26 02:19:38;;;;;;;6.80;3.08;;;7.10;80.20;;;;;;2093026;28;20082;-71
2024/03/26 02:20:38;;;;;;;6.72;3.00;;;7.10;80.30;;;;;;2092869;28;20135;-71
2024/03/26 02:21:39;;;;;;;7.38;2.97;;;7.10;80.50;;;;;;2093947;28;20024;-69
2024/03/26 02:22:39;;;;;;;8.27;3.25;;;7.00;80.60;;;;;;2084645;28;20503;-71
2024/03/26 02:23:40;;;;;;;8.15;3.22;;;7.00;80.70;;;;;;2085166;28;20021;-69
2024/03/26 02:24:40;;;;;;;10.13;3.38;;;7.00;80.80;;;;;;2093078;28;20032;-71
2024/03/26 02:25:41;;;;;;;9.88;3.88;;;7.00;80.90;;;;;;2091874;28;20035;-71
2024/03/26 02:26:41;;;;;;;8.25;3.30;;;7.00;81.80;;;;;;2093994;28;20111;-70
2024/03/26 02:27:42;;;;;;;7.45;3.55;;;7.00;81.10;;;;;;2094662;28;20037;-68
2024/03/26 02:28:42;;;;;;;8.35;3.47;;;7.00;81.20;;;;;;2094805;28;20037;-68
2024/03/26 02:29:43;;;;;;;6.72;3.33;;;7.00;81.20;;;;;;2092391;28;20027;-70
2024/03/26 02:30:43;;;;;;;8.52;3.88;;;7.00;81.30;;;;;;2093830;28;20032;-69
2024/03/26 02:31:44;;;;;;;6.47;3.28;;;7.00;81.20;;;;;;2093408;28;20439;-70
2024/03/26 02:32:44;;;;;;;6.22;3.63;;;7.00;81.30;;;;;;2094924;28;20158;-71
2024/03/26 02:33:45;;;;;;;6.53;3.33;;;7.00;81.50;;;;;;2092720;28;20037;-71
2024/03/26 02:34:46;;;;;;;6.00;3.10;;;7.00;81.50;;;;;;2092026;28;20067;-70
2024/03/26 02:35:47;;;;;;;6.32;3.03;;;7.00;81.50;;;;;;2093492;28;20037;-71
2024/03/26 02:36:47;;;;;;;9.20;3.63;;;7.00;81.50;;;;;;2091690;28;20028;-70
2024/03/26 02:37:50;;;;;;;7.57;3.72;;;7.00;81.50;;;;;;2092771;28;20031;-71
2024/03/26 02:38:50;;;;;;;8.13;4.10;;;7.00;81.60;;;;;;2092780;28;20028;-70
2024/03/26 02:39:51;;;;;;;6.95;3.22;;;7.00;81.80;;;;;;2092570;28;20036;-71
2024/03/26 02:40:51;;;;;;;7.38;3.00;;;7.00;81.90;;;;;;2093142;28;20469;-71
2024/03/26 02:41:52;;;;;;;8.40;3.08;;;7.00;81.90;;;;;;2091242;28;20047;-70
2024/03/26 02:42:53;;;;;;;6.60;3.47;;;7.00;82.00;;;;;;2093429;28;20028;-70
2024/03/26 02:43:53;;;;;;;7.80;3.60;;;7.00;81.90;;;;;;2093398;28;20025;-71
2024/03/26 02:44:54;;;;;;;8.15;2.95;;;7.00;82.00;;;;;;2091858;28;20027;-68
2024/03/26 02:45:55;;;;;;;7.47;3.25;;;7.00;82.00;;;;;;2093684;28;20040;-69
2024/03/26 02:46:55;;;;;;;10.48;2.70;;;7.00;82.10;;;;;;2091912;28;20513;-69
2024/03/26 02:47:56;;;;;;;7.40;3.72;;;7.00;82.20;;;;;;2094168;28;20040;-69
2024/03/26 02:48:56;;;;;;;8.02;2.90;;;7.00;82.30;;;;;;2094593;28;20025;-69
2024/03/26 02:49:57;;;;;;;4.00;2.63;;;7.00;82.30;;;;;;2093808;28;20052;-69
2024/03/26 02:50:57;;;;;;;5.88;2.55;;;7.00;82.20;;;;;;2092149;28;20350;-68
2024/03/26 02:51:58;;;;;;;7.95;3.35;;;7.00;82.20;;;;;;2092684;28;20114;-69
2024/03/26 02:52:58;;;;;;;5.80;3.08;;;7.00;82.10;;;;;;2092118;28;20037;-69
2024/03/26 02:53:59;;;;;;;8.48;2.83;;;7.00;82.90;;;;;;2092113;28;20064;-69
2024/03/26 02:55:00;;;;;;;5.80;2.97;;;7.00;82.10;;;;;;2091508;28;20442;-69
2024/03/26 02:56:00;;;;;;;8.15;3.20;;;7.00;82.20;;;;;;2089985;28;20021;-69
2024/03/26 02:57:01;;;;;;;5.88;3.10;;;7.00;82.10;;;;;;2093101;28;20090;-69
2024/03/26 02:58:01;;;;;;;10.55;3.25;;;7.00;82.10;;;;;;2092997;28;20064;-69
2024/03/26 02:59:02;;;;;;;7.85;3.85;;;7.00;82.10;;;;;;2091076;28;20021;-71
2024/03/26 03:00:07;;;;;;;9.43;3.70;;;7.00;82.10;;;;;;2093669;28;20051;-72
2024/03/26 03:01:10;;;;;;;7.25;3.35;;;7.00;82.10;;;;;;2094505;28;20529;-70
2024/03/26 03:02:11;;;;;;;7.05;3.30;;;7.00;82.10;;;;;;2094632;28;20396;-71
2024/03/26 03:03:11;;;;;;;5.00;2.83;;;7.00;82.00;;;;;;2094190;28;20021;-70
2024/03/26 03:04:12;;;;;;;6.97;3.03;;;7.00;82.00;;;;;;2094676;28;20032;-70
2024/03/26 03:05:13;;;;;;;7.65;3.42;;;7.00;82.00;;;;;;2095249;28;20111;-69
2024/03/26 03:06:13;;;;;;;8.00;3.75;;;7.00;82.00;;;;;;2093580;28;20102;-71
2024/03/26 03:07:14;;;;;;;8.90;3.35;;;7.00;82.10;;;;;;2095636;28;20071;-69
2024/03/26 03:08:14;;;;;;;5.25;2.80;;;7.00;82.00;;;;;;2092520;28;20021;-71
2024/03/26 03:09:15;;;;;;;7.60;2.88;;;7.00;81.90;;;;;;2093425;28;20029;-70
2024/03/26 03:10:16;;;;;;;7.78;2.97;;;7.00;81.90;;;;;;2094227;28;20020;-70
2024/03/26 03:11:16;;;;;;;7.60;2.75;;;7.00;82.10;;;;;;2093181;28;20033;-71
2024/03/26 03:12:17;;;;;;;5.47;2.80;;;7.00;82.10;;;;;;2091581;28;20087;-71
2024/03/26 03:13:17;;;;;;;7.47;2.90;;;7.00;82.00;;;;;;2094914;28;20078;-71
2024/03/26 03:14:18;;;;;;;5.93;3.03;;;7.10;82.10;;;;;;2094445;28;20661;-70
2024/03/26 03:15:19;;;;;;;7.95;3.25;;;7.00;82.00;;;;;;2093845;28;20033;-71
2024/03/26 03:16:19;;;;;;;5.68;3.25;;;7.10;82.10;;;;;;2095075;28;20107;-70
2024/03/26 03:17:20;;;;;;;3.92;2.50;;;7.10;81.90;;;;;;2094524;28;20059;-69
2024/03/26 03:18:20;;;;;;;10.65;2.97;;;7.10;81.90;;;;;;2094384;28;20056;-71
2024/03/26 03:19:21;;;;;;;6.90;3.22;;;7.10;82.00;;;;;;2094067;28;20017;-70
2024/03/26 03:20:21;;;;;;;6.47;2.97;;;7.10;82.10;;;;;;2092929;28;20063;-69
2024/03/26 03:21:22;;;;;;;6.03;3.08;;;7.10;82.20;;;;;;2094475;28;20096;-71
2024/03/26 03:22:22;;;;;;;8.88;2.95;;;7.10;82.10;;;;;;2091370;28;20032;-70
2024/03/26 03:23:23;;;;;;;8.70;3.28;;;7.10;82.00;;;;;;2093573;28;20808;-71
2024/03/26 03:24:24;;;;;;;5.63;3.05;;;7.10;82.00;;;;;;2094053;28;20031;-70
2024/03/26 03:25:24;;;;;;;6.88;3.25;;;7.10;81.90;;;;;;2095149;28;20028;-71
2024/03/26 03:26:25;;;;;;;9.07;3.22;;;7.10;81.90;;;;;;2094785;28;20034;-71
2024/03/26 03:27:25;;;;;;;6.68;2.83;;;7.10;81.90;;;;;;2095802;28;20020;-71
2024/03/26 03:28:26;;;;;;;6.68;2.58;;;7.10;81.90;;;;;;2092388;28;20041;-71
2024/03/26 03:29:26;;;;;;;7.15;2.70;;;7.20;82.00;;;;;;2093903;28;20094;-71
2024/03/26 03:30:27;;;;;;;6.18;3.40;;;7.10;81.90;;;;;;2095078;28;20055;-71
2024/03/26 03:31:27;;;;;;;8.02;3.22;;;7.10;81.80;;;;;;2090372;28;20032;-71
2024/03/26 03:32:28;;;;;;;4.50;2.78;;;7.10;81.90;;;;;;2094237;28;20028;-70
2024/03/26 03:33:28;;;;;;;7.35;3.17;;;7.10;81.90;;;;;;2095352;28;20511;-70
2024/03/26 03:34:29;;;;;;;8.27;3.03;;;7.20;82.00;;;;;;2094782;28;20100;-71
2024/03/26 03:35:29;;;;;;;10.43;3.33;;;7.10;81.90;;;;;;2094382;28;20118;-71
2024/03/26 03:36:30;;;;;;;9.20;3.10;;;7.10;81.90;;;;;;2094213;28;20021;-71
2024/03/26 03:37:30;;;;;;;6.90;3.05;;;7.10;82.00;;;;;;2095710;28;20017;-71
2024/03/26 03:38:31;;;;;;;6.25;3.00;;;7.10;82.00;;;;;;2091585;28;20032;-71
2024/03/26 03:39:31;;;;;;;6.38;3.05;;;7.20;82.00;;;;;;2095610;28;20135;-70
2024/03/26 03:40:33;;;;;;;6.38;3.05;;;7.10;82.00;;;;;;2094197;28;20033;-71
2024/03/26 03:41:34;;;;;;;8.88;3.00;;;7.10;82.10;;;;;;2095139;28;20033;-71
2024/03/26 03:42:34;;;;;;;7.05;2.97;;;7.20;82.20;;;;;;2095148;28;20025;-70
2024/03/26 03:43:35;;;;;;;5.90;3.22;;;7.10;82.10;;;;;;2093691;28;20039;-70
2024/03/26 03:44:35;;;;;;;9.68;2.92;;;7.10;82.10;;;;;;2093379;28;20057;-70
2024/03/26 03:45:37;;;;;;;6.65;3.10;;;7.10;82.10;;;;;;2094066;28;20103;-70
2024/03/26 03:46:37;;;;;;;20.67;3.58;;;7.10;82.20;;;;;;2095041;28;20024;-69
2024/03/26 03:47:38;;;;;;;7.85;3.45;;;7.10;82.20;;;;;;2094661;28;20032;-70
2024/03/26 03:48:39;;;;;;;9.95;3.72;;;7.10;82.20;;;;;;2093314;28;20495;-68
2024/03/26 03:49:39;;;;;;;7.40;3.20;;;7.20;83.00;;;;;;2094533;28;20029;-70
2024/03/26 03:50:40;;;;;;;7.38;3.40;;;7.10;82.30;;;;;;2095767;28;20021;-70
2024/03/26 03:51:43;;;;;;;6.93;3.10;;;7.10;82.40;;;;;;2093079;28;20035;-70
2024/03/26 03:52:43;;;;;;;7.43;2.92;;;7.10;82.40;;;;;;2093889;28;20024;-70
2024/03/26 03:53:44;;;;;;;6.50;3.28;;;7.10;82.40;;;;;;2097122;28;20378;-70
2024/03/26 03:54:44;;;;;;;7.43;3.13;;;7.10;82.40;;;;;;2094879;28;20059;-70
2024/03/26 03:55:45;;;;;;;7.97;3.35;;;7.10;82.40;;;;;;2094615;28;20029;-70
2024/03/26 03:56:45;;;;;;;6.35;3.20;;;7.10;82.30;;;;;;2094772;28;20028;-70
2024/03/26 03:57:46;;;;;;;5.65;3.13;;;7.10;82.30;;;;;;2094659;28;20052;-70
2024/03/26 03:58:46;;;;;;;5.88;3.03;;;7.10;82.30;;;;;;2092891;28;20055;-70
2024/03/26 03:59:47;;;;;;;8.50;3.05;;;7.10;82.30;;;;;;2093973;28;20041;-70
2024/03/26 04:00:47;;;;;;;5.80;2.72;;;7.10;82.30;;;;;;2092661;28;20522;-69
2024/03/26 04:01:48;;;;;;;5.50;3.20;;;7.10;82.30;;;;;;2094017;28;20027;-70
2024/03/26 04:02:48;;;;;;;6.40;2.90;;;7.10;82.20;;;;;;2091906;28;20751;-71
2024/03/26 04:03:49;;;;;;;6.68;4.05;;;7.20;82.40;;;;;;2095260;28;20060;-69
2024/03/26 04:04:49;;;;;;;6.57;3.20;;;7.10;82.40;;;;;;2093244;28;20027;-70
2024/03/26 04:05:50;;;;;;;9.35;3.22;;;7.10;82.40;;;;;;2094606;28;20024;-70
2024/03/26 04:06:50;;;;;;;6.38;3.03;;;7.10;82.40;;;;;;2092915;28;20097;-70
2024/03/26 04:07:51;;;;;;;5.18;3.13;;;7.10;82.40;;;;;;2095223;28;20055;-70
2024/03/26 04:08:52;;;;;;;8.23;3.45;;;7.10;82.50;;;;;;2094166;28;20049;-69
2024/03/26 04:09:53;;;;;;;4.90;3.00;;;7.10;82.50;;;;;;2094999;28;20027;-70
2024/03/26 04:10:53;;;;;;;4.68;2.90;;;7.10;82.50;;;;;;2093779;28;20074;-70
2024/03/26 04:11:54;;;;;;;4.80;2.92;;;7.10;82.50;;;;;;2093162;28;20020;-70
2024/03/26 04:12:55;;;;;;;5.93;3.30;;;7.10;82.60;;;;;;2092908;28;20025;-69
2024/03/26 04:13:55;;;;;;;5.53;3.17;;;7.10;82.70;;;;;;2096229;28;20036;-70
2024/03/26 04:14:56;;;;;;;7.05;2.72;;;7.10;82.80;;;;;;2093986;28;20020;-70
2024/03/26 04:15:56;;;;;;;6.68;3.17;;;7.10;82.90;;;;;;2094181;28;20060;-71
2024/03/26 04:16:57;;;;;;;5.88;3.13;;;7.10;82.90;;;;;;2093515;28;20032;-71
2024/03/26 04:17:57;;;;;;;6.22;3.20;;;7.10;82.80;;;;;;2093813;28;20020;-71
2024/03/26 04:18:58;;;;;;;7.82;3.08;;;7.10;82.80;;;;;;2096964;28;20031;-70
2024/03/26 04:19:58;;;;;;;9.15;3.00;;;7.10;82.90;;;;;;2093381;28;20056;-69
2024/03/26 04:20:59;;;;;;;6.00;2.78;;;7.10;82.90;;;;;;2093714;28;20032;-70
2024/03/26 04:21:59;;;;;;;7.20;2.85;;;7.10;82.80;;;;;;2094065;28;20484;-68
2024/03/26 04:23:00;;;;;;;6.88;3.60;;;7.10;82.80;;;;;;2092791;28;20021;-70
2024/03/26 04:24:01;;;;;;;7.63;3.25;;;7.10;82.90;;;;;;2095944;28;20035;-70
2024/03/26 04:25:02;;;;;;;5.88;3.33;;;7.10;82.90;;;;;;2093648;28;20086;-68
2024/03/26 04:26:02;;;;;;;6.90;3.28;;;7.10;82.90;;;;;;2094419;28;20063;-70
2024/03/26 04:27:03;;;;;;;7.68;3.03;;;7.10;82.90;;;;;;2093412;28;20074;-70
2024/03/26 04:28:04;;;;;;;5.30;2.95;;;7.10;82.90;;;;;;2094575;28;20037;-70
2024/03/26 04:29:04;;;;;;;6.55;3.00;;;7.10;82.90;;;;;;2093196;28;20024;-70
2024/03/26 04:30:07;;;;;;;6.50;3.40;;;7.10;83.00;;;;;;2093654;28;20499;-70
2024/03/26 04:31:07;;;;;;;10.18;3.67;;;7.10;83.10;;;;;;2094294;28;20020;-70
2024/03/26 04:32:08;;;;;;;4.47;3.00;;;7.10;83.10;;;;;;2094253;28;20070;-70
2024/03/26 04:33:08;;;;;;;7.55;2.72;;;7.10;83.10;;;;;;2095326;28;20119;-68
2024/03/26 04:34:09;;;;;;;4.82;3.00;;;7.00;83.00;;;;;;2091369;28;20078;-68
2024/03/26 04:35:09;;;;;;;5.45;3.35;;;7.10;83.10;;;;;;2093537;28;20111;-69
2024/03/26 04:36:10;;;;;;;11.32;3.20;;;7.00;83.10;;;;;;2091494;28;20079;-70
2024/03/26 04:37:11;;;;;;;6.97;3.58;;;7.00;83.10;;;;;;2089595;28;20036;-70
2024/03/26 04:38:12;;;;;;;6.50;3.50;;;7.10;83.30;;;;;;2094854;28;20112;-70
2024/03/26 04:39:12;;;;;;;8.15;3.13;;;7.10;83.30;;;;;;2095020;28;20040;-70
2024/03/26 04:40:13;;;;;;;7.30;3.05;;;7.00;83.30;;;;;;2092785;28;20749;-70
2024/03/26 04:41:14;;;;;;;7.97;3.70;;;7.00;83.30;;;;;;2094022;28;20031;-70
2024/03/26 04:42:14;;;;;;;6.13;3.05;;;7.00;83.30;;;;;;2094684;28;20029;-70
2024/03/26 04:43:15;;;;;;;5.38;3.40;;;7.00;83.30;;;;;;2092562;28;20507;-70
2024/03/26 04:44:15;;;;;;;7.80;3.50;;;7.00;83.30;;;;;;2093378;28;20056;-69
2024/03/26 04:45:19;;;;;;;8.40;3.22;;;7.00;83.40;;;;;;2094721;28;20038;-70
2024/03/26 04:46:19;;;;;;;5.45;2.90;;;7.00;83.50;;;;;;2093304;28;20090;-69
2024/03/26 04:47:20;;;;;;;6.60;3.45;;;7.00;83.50;;;;;;2094516;28;20102;-70
2024/03/26 04:48:21;;;;;;;8.00;3.55;;;7.00;83.60;;;;;;2093804;28;20040;-69
2024/03/26 04:49:21;;;;;;;7.55;3.42;;;7.00;83.60;;;;;;2092237;28;20428;-70
2024/03/26 04:50:22;;;;;;;8.07;3.20;;;7.00;83.70;;;;;;2095868;28;20112;-70
2024/03/26 04:51:22;;;;;;;9.20;3.40;;;7.00;83.70;;;;;;2092356;28;20050;-69
2024/03/26 04:52:23;;;;;;;6.05;3.50;;;7.00;83.80;;;;;;2094413;28;20143;-70
2024/03/26 04:53:23;;;;;;;7.05;3.20;;;7.00;83.80;;;;;;2093736;28;20477;-69
2024/03/26 04:54:25;;;;;;;5.68;2.90;;;7.00;83.90;;;;;;2094102;28;20023;-70
2024/03/26 04:55:25;;;;;;;10.13;3.17;;;6.90;83.90;;;;;;2090967;28;20040;-70
2024/03/26 04:56:27;;;;;;;6.15;3.42;;;7.00;84.00;;;;;;2094544;28;20520;-70
2024/03/26 04:57:27;;;;;;;8.95;3.53;;;7.00;84.00;;;;;;2092466;28;20456;-70
2024/03/26 04:58:28;;;;;;;11.88;4.13;;;7.00;84.10;;;;;;2093049;28;20432;-70
2024/03/26 04:59:29;;;;;;;6.60;3.40;;;7.00;84.20;;;;;;2092530;28;20112;-69
2024/03/26 05:00:29;;;;;;;8.88;3.53;;;7.00;84.10;;;;;;2093872;28;20028;-69
2024/03/26 05:01:30;;;;;;;7.40;3.03;;;6.90;84.10;;;;;;2093598;28;20074;-68
2024/03/26 05:02:30;;;;;;;10.73;3.22;;;6.90;84.10;;;;;;2093488;28;20028;-70
2024/03/26 05:03:31;;;;;;;6.97;3.30;;;6.90;84.20;;;;;;2094775;28;20107;-70
2024/03/26 05:04:31;;;;;;;5.28;3.00;;;6.90;84.10;;;;;;2095435;28;20024;-70
2024/03/26 05:05:32;;;;;;;7.97;3.65;;;6.90;84.10;;;;;;2093697;28;20025;-70
2024/03/26 05:06:32;;;;;;;7.28;3.40;;;6.90;84.20;;;;;;2094220;28;20029;-70
2024/03/26 05:07:33;;;;;;;6.95;3.47;;;6.90;84.20;;;;;;2092268;28;20039;-70
2024/03/26 05:08:34;;;;;;;5.32;2.97;;;6.90;84.20;;;;;;2091698;28;20041;-70
2024/03/26 05:09:34;;;;;;;6.47;3.33;;;6.90;84.30;;;;;;2091118;28;20032;-68
2024/03/26 05:10:35;;;;;;;11.05;3.67;;;6.90;84.30;;;;;;2094540;28;20071;-70
2024/03/26 05:11:36;;;;;;;7.28;3.85;;;6.90;84.40;;;;;;2092449;28;20024;-70
2024/03/26 05:12:37;;;;;;;6.85;3.53;;;6.90;84.40;;;;;;2093690;28;20044;-69
2024/03/26 05:13:37;;;;;;;5.38;2.80;;;6.90;84.50;;;;;;2093036;28;20476;-70
2024/03/26 05:14:38;;;;;;;7.72;3.22;;;6.90;84.50;;;;;;2093332;28;20024;-70
2024/03/26 05:15:38;;;;;;;11.07;4.05;;;6.90;84.60;;;;;;2094653;28;20465;-70
2024/03/26 05:16:39;;;;;;;10.68;3.65;;;6.90;84.60;;;;;;2094330;28;20032;-70
2024/03/26 05:17:39;;;;;;;8.30;3.72;;;6.90;84.70;;;;;;2093787;28;20067;-70
2024/03/26 05:18:40;;;;;;;8.23;3.20;;;6.80;84.70;;;;;;2093870;28;20507;-69
2024/03/26 05:19:40;;;;;;;8.30;3.55;;;6.90;84.80;;;;;;2094694;28;20028;-70